sensor_id;sensor_type;location;lat;lon;timestamp;P1;P2;P0
50866;PMS7003;36839;51.946;21.002;2023-12-20T00:00:19;27.00;24.00;18.00
50866;PMS7003;36839;51.946;21.002;2023-12-20T00:03:08;31.00;25.00;18.00
50866;PMS7003;36839;51.946;21.002;2023-12-20T00:06:18;27.00;25.00;18.00
50866;PMS7003;36839;51.946;21.002;2023-12-20T00:12:41;26.00;24.00;17.00
50866;PMS7003;36839;51.946;21.002;2023-12-20T00:15:48;30.00;25.00;16.00
50866;PMS7003;36839;51.946;21.002;2023-12-20T00:18:37;23.00;22.50;17.00
50866;PMS7003;36839;51.946;21.002;2023-12-20T00:21:14;26.00;24.00;17.50
50866;PMS7003;36839;51.946;21.002;2023-12-20T00:24:01;32.67;25.67;18.67
50866;PMS7003;36839;51.946;21.002;2023-12-20T00:29:46;24.00;20.00;17.00
50866;PMS7003;36839;51.946;21.002;2023-12-20T00:32:31;4.00;4.00;4.00
50866;PMS7003;36839;51.946;21.002;2023-12-20T00:35:22;30.50;26.00;18.50
50866;PMS7003;36839;51.946;21.002;2023-12-20T00:38:10;23.00;19.00;16.00
50866;PMS7003;36839;51.946;21.002;2023-12-20T00:40:48;35.00;20.00;16.00
50866;PMS7003;36839;51.946;21.002;2023-12-20T00:43:29;28.00;21.00;15.00
50866;PMS7003;36839;51.946;21.002;2023-12-20T00:46:19;21.00;21.00;16.50
50866;PMS7003;36839;51.946;21.002;2023-12-20T00:52:06;21.00;21.00;14.00
50866;PMS7003;36839;51.946;21.002;2023-12-20T00:55:07;25.00;20.00;16.00
50866;PMS7003;36839;51.946;21.002;2023-12-20T00:58:06;26.00;22.00;17.00
50866;PMS7003;36839;51.946;21.002;2023-12-20T01:01:04;27.00;23.00;17.00
50866;PMS7003;36839;51.946;21.002;2023-12-20T01:10:25;27.50;23.50;18.00
50866;PMS7003;36839;51.946;21.002;2023-12-20T01:13:16;31.00;21.00;16.00
50866;PMS7003;36839;51.946;21.002;2023-12-20T01:19:03;28.50;24.50;17.00
50866;PMS7003;36839;51.946;21.002;2023-12-20T01:29:10;23.00;21.00;16.00
50866;PMS7003;36839;51.946;21.002;2023-12-20T01:32:33;24.00;20.00;15.00
50866;PMS7003;36839;51.946;21.002;2023-12-20T01:39:42;26.50;20.00;16.00
50866;PMS7003;36839;51.946;21.002;2023-12-20T01:46:22;27.00;19.00;17.00
50866;PMS7003;36839;51.946;21.002;2023-12-20T01:49:02;28.00;22.50;16.50
50866;PMS7003;36839;51.946;21.002;2023-12-20T01:52:05;25.00;20.00;15.00
50866;PMS7003;36839;51.946;21.002;2023-12-20T01:55:10;20.00;19.00;14.00
50866;PMS7003;36839;51.946;21.002;2023-12-20T01:58:14;23.00;20.00;16.50
50866;PMS7003;36839;51.946;21.002;2023-12-20T02:01:08;25.00;21.00;14.00
50866;PMS7003;36839;51.946;21.002;2023-12-20T02:04:12;24.00;21.00;16.00
50866;PMS7003;36839;51.946;21.002;2023-12-20T02:06:56;23.00;20.00;13.00
50866;PMS7003;36839;51.946;21.002;2023-12-20T02:10:06;27.00;23.00;17.00
50866;PMS7003;36839;51.946;21.002;2023-12-20T02:13:19;27.00;23.00;16.50
50866;PMS7003;36839;51.946;21.002;2023-12-20T02:16:03;23.00;23.00;16.00
50866;PMS7003;36839;51.946;21.002;2023-12-20T02:19:31;19.00;18.00;13.50
50866;PMS7003;36839;51.946;21.002;2023-12-20T02:22:10;19.00;16.00;12.00
50866;PMS7003;36839;51.946;21.002;2023-12-20T02:25:00;24.50;20.00;13.00
50866;PMS7003;36839;51.946;21.002;2023-12-20T02:27:30;16.50;15.00;11.00
50866;PMS7003;36839;51.946;21.002;2023-12-20T02:32:51;20.00;14.00;11.00
50866;PMS7003;36839;51.946;21.002;2023-12-20T02:35:40;17.50;16.00;12.50
50866;PMS7003;36839;51.946;21.002;2023-12-20T02:38:19;19.50;17.00;12.00
50866;PMS7003;36839;51.946;21.002;2023-12-20T02:44:37;18.50;15.50;11.00
50866;PMS7003;36839;51.946;21.002;2023-12-20T02:47:20;16.00;12.00;9.00
50866;PMS7003;36839;51.946;21.002;2023-12-20T02:50:15;20.00;12.00;10.00
50866;PMS7003;36839;51.946;21.002;2023-12-20T02:53:26;16.50;16.50;12.00
50866;PMS7003;36839;51.946;21.002;2023-12-20T02:56:31;24.50;17.00;12.50
50866;PMS7003;36839;51.946;21.002;2023-12-20T02:59:13;19.00;17.50;13.00
50866;PMS7003;36839;51.946;21.002;2023-12-20T03:02:16;18.00;14.00;11.00
50866;PMS7003;36839;51.946;21.002;2023-12-20T03:04:45;18.00;15.00;11.00
50866;PMS7003;36839;51.946;21.002;2023-12-20T03:08:00;17.50;14.50;10.50
50866;PMS7003;36839;51.946;21.002;2023-12-20T03:10:49;14.50;14.50;11.00
50866;PMS7003;36839;51.946;21.002;2023-12-20T03:13:30;17.00;13.00;11.00
50866;PMS7003;36839;51.946;21.002;2023-12-20T03:16:31;13.67;12.67;10.33
50866;PMS7003;36839;51.946;21.002;2023-12-20T03:19:31;13.00;12.00;9.00
50866;PMS7003;36839;51.946;21.002;2023-12-20T03:22:11;15.00;13.00;11.00
50866;PMS7003;36839;51.946;21.002;2023-12-20T03:24:50;19.00;12.00;9.00
50866;PMS7003;36839;51.946;21.002;2023-12-20T03:27:37;14.00;11.00;8.00
50866;PMS7003;36839;51.946;21.002;2023-12-20T03:30:25;12.50;12.50;10.00
50866;PMS7003;36839;51.946;21.002;2023-12-20T03:36:32;13.00;9.50;8.00
50866;PMS7003;36839;51.946;21.002;2023-12-20T03:39:23;16.50;13.50;10.50
50866;PMS7003;36839;51.946;21.002;2023-12-20T03:42:06;12.00;10.50;8.50
50866;PMS7003;36839;51.946;21.002;2023-12-20T03:45:28;16.00;12.33;9.67
50866;PMS7003;36839;51.946;21.002;2023-12-20T03:48:17;13.50;11.50;9.50
50866;PMS7003;36839;51.946;21.002;2023-12-20T03:50:51;12.50;11.00;9.00
50866;PMS7003;36839;51.946;21.002;2023-12-20T03:53:34;12.00;12.00;9.00
50866;PMS7003;36839;51.946;21.002;2023-12-20T03:56:22;2.00;2.00;0.00
50866;PMS7003;36839;51.946;21.002;2023-12-20T03:59:36;15.00;11.00;9.00
50866;PMS7003;36839;51.946;21.002;2023-12-20T04:02:50;12.00;11.00;9.00
50866;PMS7003;36839;51.946;21.002;2023-12-20T04:05:40;13.50;9.50;7.50
50866;PMS7003;36839;51.946;21.002;2023-12-20T04:08:16;9.25;9.25;6.50
50866;PMS7003;36839;51.946;21.002;2023-12-20T04:11:15;11.00;11.00;7.00
50866;PMS7003;36839;51.946;21.002;2023-12-20T04:14:09;9.67;9.67;6.00
50866;PMS7003;36839;51.946;21.002;2023-12-20T04:17:20;11.67;10.33;7.33
50866;PMS7003;36839;51.946;21.002;2023-12-20T04:19:52;10.00;10.00;8.00
50866;PMS7003;36839;51.946;21.002;2023-12-20T04:22:45;10.00;10.00;8.00
50866;PMS7003;36839;51.946;21.002;2023-12-20T04:25:43;9.00;9.00;8.00
50866;PMS7003;36839;51.946;21.002;2023-12-20T04:31:31;20.00;16.00;11.00
50866;PMS7003;36839;51.946;21.002;2023-12-20T04:34:32;11.00;10.00;8.00
50866;PMS7003;36839;51.946;21.002;2023-12-20T04:37:27;11.50;8.50;6.00
50866;PMS7003;36839;51.946;21.002;2023-12-20T04:40:18;10.50;10.00;7.00
50866;PMS7003;36839;51.946;21.002;2023-12-20T04:46:08;26.50;23.50;15.00
50866;PMS7003;36839;51.946;21.002;2023-12-20T04:48:49;32.50;24.00;15.50
50866;PMS7003;36839;51.946;21.002;2023-12-20T04:54:56;16.00;13.00;9.00
50866;PMS7003;36839;51.946;21.002;2023-12-20T04:57:47;6.00;3.00;2.00
50866;PMS7003;36839;51.946;21.002;2023-12-20T05:00:20;15.00;11.00;8.00
50866;PMS7003;36839;51.946;21.002;2023-12-20T05:03:31;11.00;8.00;6.00
50866;PMS7003;36839;51.946;21.002;2023-12-20T05:06:30;10.00;9.00;6.50
50866;PMS7003;36839;51.946;21.002;2023-12-20T05:09:19;13.00;9.00;6.00
50866;PMS7003;36839;51.946;21.002;2023-12-20T05:12:17;10.00;9.00;6.00
50866;PMS7003;36839;51.946;21.002;2023-12-20T05:15:13;10.00;9.00;6.00
50866;PMS7003;36839;51.946;21.002;2023-12-20T05:17:51;12.00;6.00;6.00
50866;PMS7003;36839;51.946;21.002;2023-12-20T05:20:56;8.00;7.00;6.00
50866;PMS7003;36839;51.946;21.002;2023-12-20T05:26:48;11.00;10.00;6.00
50866;PMS7003;36839;51.946;21.002;2023-12-20T05:29:52;12.00;10.00;6.00
50866;PMS7003;36839;51.946;21.002;2023-12-20T05:32:40;11.00;9.00;6.00
50866;PMS7003;36839;51.946;21.002;2023-12-20T05:35:19;11.00;9.00;6.00
50866;PMS7003;36839;51.946;21.002;2023-12-20T05:38:44;13.00;11.00;8.00
50866;PMS7003;36839;51.946;21.002;2023-12-20T05:41:42;12.50;7.50;5.50
50866;PMS7003;36839;51.946;21.002;2023-12-20T05:44:41;16.00;13.00;10.00
50866;PMS7003;36839;51.946;21.002;2023-12-20T05:47:18;12.00;11.00;9.00
50866;PMS7003;36839;51.946;21.002;2023-12-20T05:50:08;10.50;10.50;7.00
50866;PMS7003;36839;51.946;21.002;2023-12-20T05:53:20;17.00;12.00;8.00
50866;PMS7003;36839;51.946;21.002;2023-12-20T05:59:18;14.00;12.00;9.50
50866;PMS7003;36839;51.946;21.002;2023-12-20T06:02:05;15.00;13.00;9.00
50866;PMS7003;36839;51.946;21.002;2023-12-20T06:04:54;16.00;11.00;8.00
50866;PMS7003;36839;51.946;21.002;2023-12-20T06:11:12;11.00;10.00;8.00
50866;PMS7003;36839;51.946;21.002;2023-12-20T06:14:02;16.00;9.00;6.50
50866;PMS7003;36839;51.946;21.002;2023-12-20T06:22:58;10.00;10.00;8.50
50866;PMS7003;36839;51.946;21.002;2023-12-20T06:25:44;17.00;10.00;7.00
50866;PMS7003;36839;51.946;21.002;2023-12-20T06:28:50;9.50;9.50;6.00
50866;PMS7003;36839;51.946;21.002;2023-12-20T06:31:27;12.00;11.00;9.00
50866;PMS7003;36839;51.946;21.002;2023-12-20T06:34:36;16.00;12.00;9.00
50866;PMS7003;36839;51.946;21.002;2023-12-20T06:37:25;16.00;13.00;10.00
50866;PMS7003;36839;51.946;21.002;2023-12-20T06:43:23;13.00;12.00;9.00
50866;PMS7003;36839;51.946;21.002;2023-12-20T06:46:19;14.50;11.00;8.00
50866;PMS7003;36839;51.946;21.002;2023-12-20T06:49:05;11.00;10.00;6.00
50866;PMS7003;36839;51.946;21.002;2023-12-20T06:52:04;12.00;12.00;10.00
50866;PMS7003;36839;51.946;21.002;2023-12-20T06:54:57;12.00;11.00;9.00
50866;PMS7003;36839;51.946;21.002;2023-12-20T06:57:31;12.00;10.00;8.00
50866;PMS7003;36839;51.946;21.002;2023-12-20T07:00:20;12.00;11.50;8.50
50866;PMS7003;36839;51.946;21.002;2023-12-20T07:06:48;16.00;11.00;8.00
50866;PMS7003;36839;51.946;21.002;2023-12-20T07:09:59;17.00;11.00;10.00
50866;PMS7003;36839;51.946;21.002;2023-12-20T07:13:02;16.00;12.00;10.00
50866;PMS7003;36839;51.946;21.002;2023-12-20T07:19:28;13.50;11.00;8.00
50866;PMS7003;36839;51.946;21.002;2023-12-20T07:26:01;17.00;12.00;9.00
50866;PMS7003;36839;51.946;21.002;2023-12-20T07:32:07;11.00;11.00;7.00
50866;PMS7003;36839;51.946;21.002;2023-12-20T07:35:09;11.50;9.50;8.00
50866;PMS7003;36839;51.946;21.002;2023-12-20T07:42:13;11.00;11.00;8.00
50866;PMS7003;36839;51.946;21.002;2023-12-20T08:38:08;10.00;9.00;6.33
50866;PMS7003;36839;51.946;21.002;2023-12-20T08:40:35;11.00;11.00;9.00
50866;PMS7003;36839;51.946;21.002;2023-12-20T08:43:23;11.67;11.67;9.33
50866;PMS7003;36839;51.946;21.002;2023-12-20T08:45:58;14.00;14.00;10.00
50866;PMS7003;36839;51.946;21.002;2023-12-20T08:48:27;13.00;10.00;7.00
50866;PMS7003;36839;51.946;21.002;2023-12-20T08:50:56;16.00;12.00;9.00
50866;PMS7003;36839;51.946;21.002;2023-12-20T08:53:28;19.00;14.00;10.00
50866;PMS7003;36839;51.946;21.002;2023-12-20T08:55:57;13.00;11.00;9.00
50866;PMS7003;36839;51.946;21.002;2023-12-20T08:58:28;21.00;16.00;10.00
50866;PMS7003;36839;51.946;21.002;2023-12-20T09:00:57;13.00;9.67;7.33
50866;PMS7003;36839;51.946;21.002;2023-12-20T09:03:24;14.33;12.33;9.00
50866;PMS7003;36839;51.946;21.002;2023-12-20T09:05:55;15.00;12.00;7.00
50866;PMS7003;36839;51.946;21.002;2023-12-20T09:08:25;13.50;9.50;6.00
50866;PMS7003;36839;51.946;21.002;2023-12-20T09:10:56;16.00;13.00;9.50
50866;PMS7003;36839;51.946;21.002;2023-12-20T09:13:23;11.67;10.67;9.00
50866;PMS7003;36839;51.946;21.002;2023-12-20T09:15:57;12.00;12.00;9.50
50866;PMS7003;36839;51.946;21.002;2023-12-20T09:18:26;12.50;10.50;7.00
50866;PMS7003;36839;51.946;21.002;2023-12-20T09:20:55;19.50;12.50;9.00
50866;PMS7003;36839;51.946;21.002;2023-12-20T09:25:53;11.00;10.00;8.00
50866;PMS7003;36839;51.946;21.002;2023-12-20T09:28:23;10.00;9.00;6.00
50866;PMS7003;36839;51.946;21.002;2023-12-20T09:30:52;13.00;12.00;8.00
50866;PMS7003;36839;51.946;21.002;2023-12-20T09:33:26;14.00;12.00;9.00
50866;PMS7003;36839;51.946;21.002;2023-12-20T09:35:58;13.00;10.50;8.00
50866;PMS7003;36839;51.946;21.002;2023-12-20T09:38:32;14.00;11.00;8.00
50866;PMS7003;36839;51.946;21.002;2023-12-20T09:41:01;18.00;13.00;9.00
50866;PMS7003;36839;51.946;21.002;2023-12-20T09:43:31;10.33;9.00;6.00
50866;PMS7003;36839;51.946;21.002;2023-12-20T09:46:07;11.50;9.50;8.00
50866;PMS7003;36839;51.946;21.002;2023-12-20T09:48:38;10.50;9.00;7.00
50866;PMS7003;36839;51.946;21.002;2023-12-20T09:51:07;11.00;11.00;8.00
50866;PMS7003;36839;51.946;21.002;2023-12-20T09:53:34;11.00;11.00;9.00
50866;PMS7003;36839;51.946;21.002;2023-12-20T09:56:07;16.00;11.00;8.50
50866;PMS7003;36839;51.946;21.002;2023-12-20T09:58:38;9.50;9.50;7.50
50866;PMS7003;36839;51.946;21.002;2023-12-20T10:01:07;11.50;10.00;7.00
50866;PMS7003;36839;51.946;21.002;2023-12-20T10:03:34;12.00;11.00;8.00
50866;PMS7003;36839;51.946;21.002;2023-12-20T10:06:08;13.50;12.50;8.00
50866;PMS7003;36839;51.946;21.002;2023-12-20T10:08:38;14.50;11.00;8.00
50866;PMS7003;36839;51.946;21.002;2023-12-20T10:11:05;12.50;11.00;9.00
50866;PMS7003;36839;51.946;21.002;2023-12-20T10:13:32;13.00;11.00;8.50
50866;PMS7003;36839;51.946;21.002;2023-12-20T10:16:02;12.50;10.50;7.50
50866;PMS7003;36839;51.946;21.002;2023-12-20T10:18:31;14.50;9.00;8.00
50866;PMS7003;36839;51.946;21.002;2023-12-20T10:20:59;12.67;11.33;8.00
50866;PMS7003;36839;51.946;21.002;2023-12-20T10:23:27;12.50;12.00;9.00
50866;PMS7003;36839;51.946;21.002;2023-12-20T10:25:57;14.50;10.00;8.50
50866;PMS7003;36839;51.946;21.002;2023-12-20T10:28:32;17.00;13.50;8.50
50866;PMS7003;36839;51.946;21.002;2023-12-20T10:31:06;13.00;12.00;9.00
50866;PMS7003;36839;51.946;21.002;2023-12-20T10:33:33;18.00;14.50;11.00
50866;PMS7003;36839;51.946;21.002;2023-12-20T10:36:00;13.00;11.00;9.00
50866;PMS7003;36839;51.946;21.002;2023-12-20T10:38:30;14.33;12.00;9.33
50866;PMS7003;36839;51.946;21.002;2023-12-20T10:41:00;18.50;15.00;11.00
50866;PMS7003;36839;51.946;21.002;2023-12-20T10:43:34;17.67;14.00;8.67
50866;PMS7003;36839;51.946;21.002;2023-12-20T10:46:01;16.00;15.00;11.00
50866;PMS7003;36839;51.946;21.002;2023-12-20T10:48:31;16.00;15.00;9.00
50866;PMS7003;36839;51.946;21.002;2023-12-20T10:51:17;14.50;12.00;9.50
50866;PMS7003;36839;51.946;21.002;2023-12-20T10:53:46;11.00;9.50;7.50
50866;PMS7003;36839;51.946;21.002;2023-12-20T10:56:18;12.00;11.00;9.00
50866;PMS7003;36839;51.946;21.002;2023-12-20T10:58:49;9.50;9.50;7.50
50866;PMS7003;36839;51.946;21.002;2023-12-20T11:01:19;19.00;15.50;10.50
50866;PMS7003;36839;51.946;21.002;2023-12-20T11:03:52;43.00;34.00;21.00
50866;PMS7003;36839;51.946;21.002;2023-12-20T11:09:24;19.00;15.50;10.50
50866;PMS7003;36839;51.946;21.002;2023-12-20T11:17:14;12.00;10.00;8.00
50866;PMS7003;36839;51.946;21.002;2023-12-20T11:22:34;10.50;10.00;6.00
50866;PMS7003;36839;51.946;21.002;2023-12-20T11:25:10;9.00;9.00;6.00
50866;PMS7003;36839;51.946;21.002;2023-12-20T11:27:41;13.00;12.00;9.33
50866;PMS7003;36839;51.946;21.002;2023-12-20T11:30:13;6.67;6.67;6.00
50866;PMS7003;36839;51.946;21.002;2023-12-20T11:32:43;13.00;10.00;8.00
50866;PMS7003;36839;51.946;21.002;2023-12-20T11:35:24;12.00;9.33;6.67
50866;PMS7003;36839;51.946;21.002;2023-12-20T11:37:51;22.00;18.00;13.00
50866;PMS7003;36839;51.946;21.002;2023-12-20T11:40:19;35.50;26.00;16.50
50866;PMS7003;36839;51.946;21.002;2023-12-20T11:42:51;17.00;12.00;9.00
50866;PMS7003;36839;51.946;21.002;2023-12-20T11:45:22;28.00;20.00;17.00
50866;PMS7003;36839;51.946;21.002;2023-12-20T11:48:00;10.00;9.00;8.00
50866;PMS7003;36839;51.946;21.002;2023-12-20T11:50:36;8.50;8.50;6.00
50866;PMS7003;36839;51.946;21.002;2023-12-20T11:53:03;9.00;9.00;7.00
50866;PMS7003;36839;51.946;21.002;2023-12-20T11:55:32;17.00;10.00;8.00
50866;PMS7003;36839;51.946;21.002;2023-12-20T11:58:00;27.50;24.50;17.00
50866;PMS7003;36839;51.946;21.002;2023-12-20T12:00:31;29.00;27.00;19.00
50866;PMS7003;36839;51.946;21.002;2023-12-20T12:02:58;16.00;13.00;10.00
50866;PMS7003;36839;51.946;21.002;2023-12-20T12:05:26;26.75;21.50;16.25
50866;PMS7003;36839;51.946;21.002;2023-12-20T12:07:55;20.00;17.00;13.00
50866;PMS7003;36839;51.946;21.002;2023-12-20T12:10:24;15.00;13.00;11.00
50866;PMS7003;36839;51.946;21.002;2023-12-20T12:12:51;21.50;20.00;13.50
50866;PMS7003;36839;51.946;21.002;2023-12-20T12:15:22;27.00;20.50;12.50
50866;PMS7003;36839;51.946;21.002;2023-12-20T12:17:52;30.00;20.00;12.00
50866;PMS7003;36839;51.946;21.002;2023-12-20T12:20:32;36.00;33.50;22.00
50866;PMS7003;36839;51.946;21.002;2023-12-20T12:22:59;31.00;25.00;18.00
50866;PMS7003;36839;51.946;21.002;2023-12-20T12:25:35;13.00;13.00;9.00
50866;PMS7003;36839;51.946;21.002;2023-12-20T12:28:26;16.00;13.00;10.00
50866;PMS7003;36839;51.946;21.002;2023-12-20T12:31:02;18.00;12.00;10.00
50866;PMS7003;36839;51.946;21.002;2023-12-20T12:33:30;20.00;15.00;11.00
50866;PMS7003;36839;51.946;21.002;2023-12-20T12:35:57;11.00;10.00;6.00
50866;PMS7003;36839;51.946;21.002;2023-12-20T12:38:24;20.00;19.00;15.00
50866;PMS7003;36839;51.946;21.002;2023-12-20T12:40:51;40.00;34.00;22.50
50866;PMS7003;36839;51.946;21.002;2023-12-20T12:43:22;33.50;31.00;19.50
50866;PMS7003;36839;51.946;21.002;2023-12-20T12:45:51;31.50;24.50;16.00
50866;PMS7003;36839;51.946;21.002;2023-12-20T12:48:22;25.00;17.50;11.50
50866;PMS7003;36839;51.946;21.002;2023-12-20T12:50:50;14.00;11.00;10.00
50866;PMS7003;36839;51.946;21.002;2023-12-20T12:53:21;16.00;13.50;10.00
50866;PMS7003;36839;51.946;21.002;2023-12-20T12:55:49;22.00;20.00;15.00
50866;PMS7003;36839;51.946;21.002;2023-12-20T12:58:26;14.00;14.00;10.50
50866;PMS7003;36839;51.946;21.002;2023-12-20T13:00:56;20.50;14.00;10.50
50866;PMS7003;36839;51.946;21.002;2023-12-20T13:03:26;15.00;10.00;8.00
50866;PMS7003;36839;51.946;21.002;2023-12-20T13:05:58;11.00;8.00;6.50
50866;PMS7003;36839;51.946;21.002;2023-12-20T13:08:28;8.50;6.00;4.50
50866;PMS7003;36839;51.946;21.002;2023-12-20T13:11:00;9.00;5.00;3.50
50866;PMS7003;36839;51.946;21.002;2023-12-20T13:13:38;10.50;9.00;6.00
50866;PMS7003;36839;51.946;21.002;2023-12-20T13:16:08;14.00;10.00;9.00
50866;PMS7003;36839;51.946;21.002;2023-12-20T13:18:37;7.00;5.50;4.00
50866;PMS7003;36839;51.946;21.002;2023-12-20T13:21:06;12.00;10.00;9.00
50866;PMS7003;36839;51.946;21.002;2023-12-20T13:23:35;13.00;12.00;9.00
50866;PMS7003;36839;51.946;21.002;2023-12-20T13:26:02;9.50;9.50;8.00
50866;PMS7003;36839;51.946;21.002;2023-12-20T13:28:35;16.00;14.00;11.00
50866;PMS7003;36839;51.946;21.002;2023-12-20T13:31:06;24.00;20.00;16.00
50866;PMS7003;36839;51.946;21.002;2023-12-20T13:33:35;22.50;20.00;14.50
50866;PMS7003;36839;51.946;21.002;2023-12-20T13:36:06;12.00;12.00;8.00
50866;PMS7003;36839;51.946;21.002;2023-12-20T13:38:36;14.00;13.00;9.50
50866;PMS7003;36839;51.946;21.002;2023-12-20T13:41:03;11.50;10.00;8.50
50866;PMS7003;36839;51.946;21.002;2023-12-20T13:43:37;11.00;6.00;4.00
50866;PMS7003;36839;51.946;21.002;2023-12-20T13:46:06;13.00;10.00;8.00
50866;PMS7003;36839;51.946;21.002;2023-12-20T13:48:35;9.00;9.00;8.00
50866;PMS7003;36839;51.946;21.002;2023-12-20T13:51:04;10.50;9.50;8.00
50866;PMS7003;36839;51.946;21.002;2023-12-20T13:53:36;9.50;9.00;7.00
50866;PMS7003;36839;51.946;21.002;2023-12-20T13:56:05;10.50;9.00;6.50
50866;PMS7003;36839;51.946;21.002;2023-12-20T13:58:34;11.50;10.00;8.00
50866;PMS7003;36839;51.946;21.002;2023-12-20T14:01:04;12.50;12.50;10.50
50866;PMS7003;36839;51.946;21.002;2023-12-20T14:03:41;17.00;13.00;10.00
50866;PMS7003;36839;51.946;21.002;2023-12-20T14:06:10;20.00;16.00;9.50
50866;PMS7003;36839;51.946;21.002;2023-12-20T14:08:37;21.00;17.00;12.00
50866;PMS7003;36839;51.946;21.002;2023-12-20T14:11:05;12.00;11.00;8.00
50866;PMS7003;36839;51.946;21.002;2023-12-20T14:13:36;13.50;9.50;8.00
50866;PMS7003;36839;51.946;21.002;2023-12-20T14:18:32;18.50;16.00;11.00
50866;PMS7003;36839;51.946;21.002;2023-12-20T14:21:07;14.00;12.00;10.00
50866;PMS7003;36839;51.946;21.002;2023-12-20T14:23:34;16.50;16.00;10.00
50866;PMS7003;36839;51.946;21.002;2023-12-20T14:28:34;19.50;16.00;11.00
50866;PMS7003;36839;51.946;21.002;2023-12-20T14:31:03;18.00;16.00;13.00
50866;PMS7003;36839;51.946;21.002;2023-12-20T14:33:34;19.50;15.00;11.00
50866;PMS7003;36839;51.946;21.002;2023-12-20T14:36:04;22.00;20.00;13.00
50866;PMS7003;36839;51.946;21.002;2023-12-20T14:38:35;17.00;13.50;10.50
50866;PMS7003;36839;51.946;21.002;2023-12-20T14:41:12;22.00;17.50;12.00
50866;PMS7003;36839;51.946;21.002;2023-12-20T14:43:38;25.00;18.50;12.50
50866;PMS7003;36839;51.946;21.002;2023-12-20T14:46:13;28.00;21.00;14.00
50866;PMS7003;36839;51.946;21.002;2023-12-20T14:48:44;18.50;13.50;9.50
50866;PMS7003;36839;51.946;21.002;2023-12-20T14:51:17;15.00;14.00;11.00
50866;PMS7003;36839;51.946;21.002;2023-12-20T14:53:44;23.00;19.50;12.00
50866;PMS7003;36839;51.946;21.002;2023-12-20T14:56:16;20.00;19.00;13.50
50866;PMS7003;36839;51.946;21.002;2023-12-20T14:58:49;23.00;20.50;15.00
50866;PMS7003;36839;51.946;21.002;2023-12-20T15:01:20;17.75;15.25;11.00
50866;PMS7003;36839;51.946;21.002;2023-12-20T15:03:48;12.00;12.00;10.50
50866;PMS7003;36839;51.946;21.002;2023-12-20T15:06:19;14.00;12.00;9.00
50866;PMS7003;36839;51.946;21.002;2023-12-20T15:08:50;21.33;19.67;15.33
50866;PMS7003;36839;51.946;21.002;2023-12-20T15:11:18;25.00;22.00;13.00
50866;PMS7003;36839;51.946;21.002;2023-12-20T15:13:47;48.00;38.00;26.00
50866;PMS7003;36839;51.946;21.002;2023-12-20T15:16:24;23.00;19.00;15.00
50866;PMS7003;36839;51.946;21.002;2023-12-20T15:18:52;19.67;19.67;14.67
50866;PMS7003;36839;51.946;21.002;2023-12-20T15:21:20;17.00;16.50;11.00
50866;PMS7003;36839;51.946;21.002;2023-12-20T15:23:56;20.00;16.00;13.00
50866;PMS7003;36839;51.946;21.002;2023-12-20T15:26:32;14.00;14.00;10.00
50866;PMS7003;36839;51.946;21.002;2023-12-20T15:29:06;14.50;13.00;9.50
50866;PMS7003;36839;51.946;21.002;2023-12-20T15:31:52;21.00;16.50;11.50
50866;PMS7003;36839;51.946;21.002;2023-12-20T15:34:21;21.00;16.00;11.00
50866;PMS7003;36839;51.946;21.002;2023-12-20T15:36:53;18.00;15.00;11.00
50866;PMS7003;36839;51.946;21.002;2023-12-20T15:39:21;22.00;17.00;14.00
50866;PMS7003;36839;51.946;21.002;2023-12-20T15:41:47;15.50;14.00;9.50
50866;PMS7003;36839;51.946;21.002;2023-12-20T15:44:15;28.50;23.50;15.50
50866;PMS7003;36839;51.946;21.002;2023-12-20T15:46:44;22.00;19.00;13.50
50866;PMS7003;36839;51.946;21.002;2023-12-20T15:49:12;18.00;18.00;12.00
50866;PMS7003;36839;51.946;21.002;2023-12-20T15:51:38;24.33;22.67;15.33
50866;PMS7003;36839;51.946;21.002;2023-12-20T15:54:05;16.50;16.50;11.00
50866;PMS7003;36839;51.946;21.002;2023-12-20T15:56:34;22.00;17.00;12.00
50866;PMS7003;36839;51.946;21.002;2023-12-20T15:59:04;24.50;18.00;13.00
50866;PMS7003;36839;51.946;21.002;2023-12-20T16:01:35;22.50;19.50;12.50
50866;PMS7003;36839;51.946;21.002;2023-12-20T16:04:05;21.00;19.00;14.00
50866;PMS7003;36839;51.946;21.002;2023-12-20T16:06:34;18.00;16.00;12.00
50866;PMS7003;36839;51.946;21.002;2023-12-20T16:09:05;16.50;14.00;9.50
50866;PMS7003;36839;51.946;21.002;2023-12-20T16:11:38;17.00;13.00;9.00
50866;PMS7003;36839;51.946;21.002;2023-12-20T16:14:22;16.00;16.00;12.00
50866;PMS7003;36839;51.946;21.002;2023-12-20T16:16:52;13.50;13.00;8.00
50866;PMS7003;36839;51.946;21.002;2023-12-20T16:19:23;26.00;20.00;14.00
50866;PMS7003;36839;51.946;21.002;2023-12-20T16:21:50;15.50;15.50;10.50
50866;PMS7003;36839;51.946;21.002;2023-12-20T16:24:24;15.50;14.50;10.00
50866;PMS7003;36839;51.946;21.002;2023-12-20T16:26:50;25.00;22.00;15.50
50866;PMS7003;36839;51.946;21.002;2023-12-20T16:29:18;25.00;25.00;17.00
50866;PMS7003;36839;51.946;21.002;2023-12-20T16:31:49;23.00;19.00;14.00
50866;PMS7003;36839;51.946;21.002;2023-12-20T16:34:15;24.50;20.00;13.50
50866;PMS7003;36839;51.946;21.002;2023-12-20T16:36:50;17.50;16.50;12.00
50866;PMS7003;36839;51.946;21.002;2023-12-20T16:39:24;15.00;14.00;10.00
50866;PMS7003;36839;51.946;21.002;2023-12-20T16:41:57;22.00;16.00;11.00
50866;PMS7003;36839;51.946;21.002;2023-12-20T16:44:27;22.50;20.00;14.50
50866;PMS7003;36839;51.946;21.002;2023-12-20T16:46:56;27.00;23.00;17.00
50866;PMS7003;36839;51.946;21.002;2023-12-20T16:49:27;29.00;24.00;16.50
50866;PMS7003;36839;51.946;21.002;2023-12-20T16:51:57;24.50;20.00;15.00
50866;PMS7003;36839;51.946;21.002;2023-12-20T16:54:24;18.00;15.00;12.00
50866;PMS7003;36839;51.946;21.002;2023-12-20T16:56:55;13.33;11.00;9.00
50866;PMS7003;36839;51.946;21.002;2023-12-20T16:59:26;18.00;16.50;12.00
50866;PMS7003;36839;51.946;21.002;2023-12-20T17:01:55;12.00;12.00;9.00
50866;PMS7003;36839;51.946;21.002;2023-12-20T17:04:25;14.00;10.75;8.50
50866;PMS7003;36839;51.946;21.002;2023-12-20T17:06:57;15.00;15.00;11.50
50866;PMS7003;36839;51.946;21.002;2023-12-20T17:09:26;15.00;14.00;11.00
50866;PMS7003;36839;51.946;21.002;2023-12-20T17:11:53;12.50;12.50;9.00
50866;PMS7003;36839;51.946;21.002;2023-12-20T17:14:28;8.50;8.50;7.50
50866;PMS7003;36839;51.946;21.002;2023-12-20T17:16:56;14.00;12.50;9.00
50866;PMS7003;36839;51.946;21.002;2023-12-20T17:19:23;16.00;11.00;9.00
50866;PMS7003;36839;51.946;21.002;2023-12-20T17:21:53;22.00;22.00;16.00
50866;PMS7003;36839;51.946;21.002;2023-12-20T17:24:22;16.00;16.00;14.00
50866;PMS7003;36839;51.946;21.002;2023-12-20T17:26:49;32.00;27.00;17.00
50866;PMS7003;36839;51.946;21.002;2023-12-20T17:29:23;27.50;21.50;13.00